Time;durP1;ratioP1;P1;durP2;ratioP2;P2;SDS_P1;SDS_P2;PMS_P1;PMS_P2;Temp;Humidity;BMP_temperature;BMP_pressure;BME280_temperature;BME280_humidity;BME280_pressure;Samples;Min_cycle;Max_cycle;Signal;HPM_P1;HPM_P2
2022/04/29 00:02:53;;;;;;;9.17;4.33;;;;;;;;;;6168692;28;20249;-70
2022/04/29 00:06:19;;;;;;;7.60;5.07;;;;;;;;;;6164182;28;20512;-70
2022/04/29 00:09:43;;;;;;;10.00;4.93;;;;;;;;;;6172807;28;20230;-70
2022/04/29 00:13:07;;;;;;;12.37;6.07;;;;;;;;;;6174906;28;20234;-70
2022/04/29 00:16:29;;;;;;;11.30;5.87;;;;;;;;;;6174210;28;20517;-69
2022/04/29 00:19:50;;;;;;;7.97;4.90;;;;;;;;;;6175432;28;20230;-70
2022/04/29 00:23:13;;;;;;;7.17;4.73;;;;;;;;;;6175336;28;20231;-70
2022/04/29 00:26:37;;;;;;;10.80;4.90;;;;;;;;;;6164946;28;20759;-70
2022/04/29 00:29:58;;;;;;;7.93;5.67;;;;;;;;;;6149769;28;20226;-69
2022/04/29 00:33:19;;;;;;;10.80;6.00;;;;;;;;;;6178281;28;20325;-70
2022/04/29 00:36:39;;;;;;;7.43;4.77;;;;;;;;;;6178309;28;20333;-69
2022/04/29 00:40:00;;;;;;;8.27;5.83;;;;;;;;;;6168251;28;20524;-70
2022/04/29 00:43:22;;;;;;;8.30;4.93;;;;;;;;;;6159419;28;20238;-69
2022/04/29 00:46:43;;;;;;;8.50;5.37;;;;;;;;;;6178651;28;20230;-69
2022/04/29 00:50:04;;;;;;;8.43;5.73;;;;;;;;;;6149519;28;20229;-70
2022/04/29 00:53:26;;;;;;;8.83;5.40;;;;;;;;;;6176662;28;20230;-70
2022/04/29 00:56:47;;;;;;;13.83;6.23;;;;;;;;;;6175520;28;20324;-69
2022/04/29 01:00:11;;;;;;;12.00;7.03;;;;;;;;;;6171823;28;20226;-69
2022/04/29 01:03:32;;;;;;;12.53;6.77;;;;;;;;;;6152721;28;20812;-71
2022/04/29 01:06:53;;;;;;;11.67;6.37;;;;;;;;;;6157588;28;20237;-69
2022/04/29 01:10:14;;;;;;;6.17;5.33;;;;;;;;;;6151921;28;20576;-69
2022/04/29 01:13:35;;;;;;;7.70;6.07;;;;;;;;;;6169155;28;20245;-70
2022/04/29 01:16:58;;;;;;;7.03;5.43;;;;;;;;;;6151374;28;20320;-69
2022/04/29 01:20:19;;;;;;;10.07;4.97;;;;;;;;;;6172718;28;20221;-69
2022/04/29 01:23:43;;;;;;;8.83;5.70;;;;;;;;;;6174750;28;20250;-69
2022/04/29 01:27:10;;;;;;;13.63;6.20;;;;;;;;;;6172664;28;20226;-70
2022/04/29 01:30:31;;;;;;;9.30;5.13;;;;;;;;;;6146858;28;20320;-69
2022/04/29 01:33:51;;;;;;;9.93;6.17;;;;;;;;;;6152730;28;20868;-70
2022/04/29 01:37:12;;;;;;;9.80;5.43;;;;;;;;;;6166744;28;20584;-70
2022/04/29 01:40:34;;;;;;;11.13;5.87;;;;;;;;;;6124923;28;20226;-70
2022/04/29 01:44:00;;;;;;;10.57;6.30;;;;;;;;;;6166624;28;20521;-69
2022/04/29 01:47:21;;;;;;;7.07;5.73;;;;;;;;;;6166649;28;20230;-70
2022/04/29 01:51:06;;;;;;;9.57;6.03;;;;;;;;;;6139515;28;20253;-69
2022/04/29 01:54:26;;;;;;;7.80;5.90;;;;;;;;;;6141056;28;20231;-70
2022/04/29 01:57:51;;;;;;;7.80;5.60;;;;;;;;;;6158513;28;20600;-70
2022/04/29 02:01:12;;;;;;;8.07;5.90;;;;;;;;;;6158312;28;20234;-70
2022/04/29 02:04:34;;;;;;;10.87;6.10;;;;;;;;;;6129188;28;20555;-69
2022/04/29 02:07:57;;;;;;;8.10;6.67;;;;;;;;;;6144187;28;20263;-70
2022/04/29 02:11:18;;;;;;;11.97;6.03;;;;;;;;;;6165784;28;20226;-71
2022/04/29 02:14:46;;;;;;;7.80;5.80;;;;;;;;;;6168264;28;20222;-69
2022/04/29 02:18:07;;;;;;;18.33;8.27;;;;;;;;;;6169081;28;20233;-70
2022/04/29 02:21:29;;;;;;;7.80;5.80;;;;;;;;;;6152907;28;20334;-69
2022/04/29 02:24:50;;;;;;;8.30;5.60;;;;;;;;;;6156787;28;20233;-70
2022/04/29 02:28:11;;;;;;;9.50;6.67;;;;;;;;;;6152929;28;20226;-70
2022/04/29 02:31:33;;;;;;;11.13;7.00;;;;;;;;;;6168543;28;20237;-70
2022/04/29 02:34:54;;;;;;;8.27;6.03;;;;;;;;;;6152739;28;20225;-69
2022/04/29 02:38:14;;;;;;;10.27;6.60;;;;;;;;;;6163709;28;20245;-70
2022/04/29 02:41:36;;;;;;;8.03;6.57;;;;;;;;;;6168062;28;20241;-69
2022/04/29 02:44:57;;;;;;;9.10;6.57;;;;;;;;;;6157865;28;20715;-70
2022/04/29 02:48:21;;;;;;;10.57;6.60;;;;;;;;;;6163526;28;20317;-70
2022/04/29 02:51:42;;;;;;;9.90;6.50;;;;;;;;;;6154459;28;20329;-69
2022/04/29 02:55:03;;;;;;;11.07;6.67;;;;;;;;;;6163583;28;20237;-69
2022/04/29 02:58:43;;;;;;;10.33;6.47;;;;;;;;;;6163705;28;20241;-69
2022/04/29 03:02:04;;;;;;;11.07;6.90;;;;;;;;;;6167408;28;20233;-69
2022/04/29 03:05:26;;;;;;;8.30;7.27;;;;;;;;;;6153524;28;20241;-70
2022/04/29 03:08:47;;;;;;;10.93;9.93;;;;;;;;;;6167268;28;20241;-69
2022/04/29 03:12:12;;;;;;;38.37;34.70;;;;;;;;;;6166675;28;20526;-70
2022/04/29 03:15:34;;;;;;;8.40;7.70;;;;;;;;;;6170143;28;20230;-69
2022/04/29 03:18:55;;;;;;;10.00;7.57;;;;;;;;;;6167231;28;20261;-70
2022/04/29 03:22:17;;;;;;;9.20;7.10;;;;;;;;;;6150601;28;20225;-70
2022/04/29 03:25:38;;;;;;;12.00;7.13;;;;;;;;;;6167738;28;20230;-69
2022/04/29 03:28:59;;;;;;;12.53;7.23;;;;;;;;;;6163766;28;21210;-69
2022/04/29 03:32:19;;;;;;;9.37;7.47;;;;;;;;;;6163513;28;20233;-69
2022/04/29 03:36:01;;;;;;;9.53;6.60;;;;;;;;;;6144358;28;20233;-70
2022/04/29 03:39:26;;;;;;;11.60;6.67;;;;;;;;;;6164400;28;20225;-70
2022/04/29 03:42:48;;;;;;;9.50;7.33;;;;;;;;;;6149270;28;20234;-70
2022/04/29 03:46:09;;;;;;;16.87;11.57;;;;;;;;;;6166295;28;20872;-70
2022/04/29 03:49:47;;;;;;;24.37;22.07;;;;;;;;;;6162744;28;20696;-69
2022/04/29 03:53:12;;;;;;;12.50;9.63;;;;;;;;;;6166433;28;20580;-69
2022/04/29 03:56:36;;;;;;;7.77;6.93;;;;;;;;;;6169310;28;20230;-69
2022/04/29 03:59:57;;;;;;;10.60;7.80;;;;;;;;;;6154474;28;20607;-70
2022/04/29 04:03:17;;;;;;;10.47;6.83;;;;;;;;;;6149682;28;20607;-69
2022/04/29 04:06:50;;;;;;;23.13;20.73;;;;;;;;;;6172799;28;20265;-69
2022/04/29 04:10:20;;;;;;;13.97;10.07;;;;;;;;;;6164043;28;20225;-70
2022/04/29 04:13:43;;;;;;;35.27;29.73;;;;;;;;;;6165047;28;20233;-71
2022/04/29 04:17:26;;;;;;;12.97;11.80;;;;;;;;;;6163367;28;20234;-70
2022/04/29 04:20:48;;;;;;;20.67;18.43;;;;;;;;;;6167320;28;20226;-70
2022/04/29 04:24:11;;;;;;;14.63;13.13;;;;;;;;;;6154918;28;20249;-69
2022/04/29 04:27:31;;;;;;;23.80;21.33;;;;;;;;;;6150810;28;20230;-70
2022/04/29 04:30:53;;;;;;;15.10;12.73;;;;;;;;;;6139275;28;20234;-70
2022/04/29 04:37:56;;;;;;;8.77;6.63;;;;;;;;;;6156187;28;20226;-70
2022/04/29 04:41:33;;;;;;;8.63;7.73;;;;;;;;;;6155728;28;20233;-69
2022/04/29 04:44:54;;;;;;;11.50;8.00;;;;;;;;;;6153361;28;20234;-70
2022/04/29 04:48:17;;;;;;;11.17;8.23;;;;;;;;;;6169831;28;20325;-70
2022/04/29 04:51:56;;;;;;;8.90;8.00;;;;;;;;;;6169372;28;20234;-70
2022/04/29 04:55:17;;;;;;;8.57;7.70;;;;;;;;;;6153315;28;20225;-70
2022/04/29 04:58:37;;;;;;;8.20;7.37;;;;;;;;;;6165395;28;20328;-70
2022/04/29 05:01:58;;;;;;;8.97;7.93;;;;;;;;;;6162500;28;20229;-70
2022/04/29 05:05:39;;;;;;;11.00;7.93;;;;;;;;;;6171454;28;20631;-70
2022/04/29 05:09:05;;;;;;;11.03;7.90;;;;;;;;;;6150856;28;20225;-70
2022/04/29 05:12:28;;;;;;;8.67;7.77;;;;;;;;;;6154248;28;20226;-70
2022/04/29 05:16:09;;;;;;;10.37;8.47;;;;;;;;;;6161949;28;20238;-69
2022/04/29 05:19:49;;;;;;;11.80;7.50;;;;;;;;;;6171500;28;20233;-70
2022/04/29 05:23:16;;;;;;;9.97;8.03;;;;;;;;;;6176452;28;20234;-69
2022/04/29 05:26:55;;;;;;;9.53;7.40;;;;;;;;;;6179041;28;20316;-70
2022/04/29 05:30:37;;;;;;;10.33;8.10;;;;;;;;;;6174541;28;20330;-70
2022/04/29 05:34:16;;;;;;;9.73;7.80;;;;;;;;;;6173963;28;20551;-70
2022/04/29 05:37:55;;;;;;;9.37;8.40;;;;;;;;;;6168389;28;21596;-70
2022/04/29 05:45:01;;;;;;;8.83;7.93;;;;;;;;;;6172139;28;20230;-69
2022/04/29 05:48:23;;;;;;;10.10;9.20;;;;;;;;;;6155986;28;20234;-68
2022/04/29 05:51:44;;;;;;;11.93;7.93;;;;;;;;;;6172885;28;20238;-70
2022/04/29 05:55:06;;;;;;;10.43;8.07;;;;;;;;;;6161940;28;20628;-69
2022/04/29 05:58:29;;;;;;;8.00;6.47;;;;;;;;;;6175175;28;20269;-69
2022/04/29 06:02:10;;;;;;;13.03;7.70;;;;;;;;;;6174504;28;20238;-68
2022/04/29 06:05:40;;;;;;;13.30;10.70;;;;;;;;;;6163782;28;20249;-70
2022/04/29 06:09:01;;;;;;;8.37;7.63;;;;;;;;;;6168458;28;20234;-68
2022/04/29 06:12:22;;;;;;;24.50;22.17;;;;;;;;;;6162691;28;20226;-70
2022/04/29 06:15:45;;;;;;;15.23;11.37;;;;;;;;;;6159627;28;20257;-76
2022/04/29 06:19:24;;;;;;;9.17;7.90;;;;;;;;;;6173323;28;21177;-70
2022/04/29 06:23:03;;;;;;;13.20;10.20;;;;;;;;;;6177541;28;20226;-69
2022/04/29 06:26:27;;;;;;;7.80;6.93;;;;;;;;;;6164350;28;20537;-70
2022/04/29 06:29:48;;;;;;;7.13;6.33;;;;;;;;;;6158627;28;20238;-70
2022/04/29 06:33:10;;;;;;;10.90;6.87;;;;;;;;;;6162249;28;20614;-69
2022/04/29 06:36:38;;;;;;;10.60;6.93;;;;;;;;;;6164815;28;20244;-69
2022/04/29 06:40:00;;;;;;;7.20;6.60;;;;;;;;;;6181867;28;20234;-71
2022/04/29 06:43:38;;;;;;;12.10;7.20;;;;;;;;;;6171296;28;20234;-70
2022/04/29 06:47:13;;;;;;;10.93;7.40;;;;;;;;;;6166480;28;20229;-68
2022/04/29 06:51:07;;;;;;;6.57;5.87;;;;;;;;;;6117959;28;20245;-68
2022/04/29 06:54:39;;;;;;;7.97;5.87;;;;;;;;;;6148233;28;20611;-68
2022/04/29 06:58:04;;;;;;;9.63;6.57;;;;;;;;;;6162260;28;20324;-65
2022/04/29 07:01:26;;;;;;;7.20;6.30;;;;;;;;;;6155942;28;20800;-66
2022/04/29 07:04:47;;;;;;;7.00;6.30;;;;;;;;;;6171472;28;20229;-68
2022/04/29 07:08:10;;;;;;;11.83;6.47;;;;;;;;;;6161049;28;20230;-66
2022/04/29 07:12:02;;;;;;;7.63;6.03;;;;;;;;;;6163501;28;20240;-71
2022/04/29 07:15:31;;;;;;;10.80;6.57;;;;;;;;;;6151968;28;20958;-70
2022/04/29 07:19:00;;;;;;;8.17;6.57;;;;;;;;;;6170873;28;22497;-70
2022/04/29 07:22:20;;;;;;;8.60;6.70;;;;;;;;;;6165374;28;20282;-70
2022/04/29 07:25:43;;;;;;;6.97;6.00;;;;;;;;;;6152044;28;20241;-73
2022/04/29 07:29:03;;;;;;;10.37;5.97;;;;;;;;;;6160531;28;20225;-71
2022/04/29 07:32:31;;;;;;;11.77;6.27;;;;;;;;;;6146475;28;20958;-69
2022/04/29 07:43:30;;;;;;;8.43;4.90;;;;;;;;;;6157875;28;20234;-71
2022/04/29 07:46:53;;;;;;;7.70;4.60;;;;;;;;;;6165046;28;20261;-69
2022/04/29 07:50:40;;;;;;;6.93;4.77;;;;;;;;;;6168202;28;20772;-70
2022/04/29 07:54:01;;;;;;;8.77;5.87;;;;;;;;;;6159066;28;20647;-71
2022/04/29 07:57:21;;;;;;;13.33;10.83;;;;;;;;;;6174606;28;20229;-72
2022/04/29 08:00:45;;;;;;;10.00;5.43;;;;;;;;;;6161606;28;20238;-70
2022/04/29 08:04:06;;;;;;;7.60;4.57;;;;;;;;;;6155612;28;20236;-70
2022/04/29 08:07:27;;;;;;;7.50;4.97;;;;;;;;;;6170652;28;20238;-70
2022/04/29 08:10:48;;;;;;;9.10;5.27;;;;;;;;;;6140851;28;20243;-66
2022/04/29 08:14:08;;;;;;;6.27;3.73;;;;;;;;;;6154919;28;20368;-68
2022/04/29 08:17:57;;;;;;;4.47;4.07;;;;;;;;;;6142557;28;20607;-68
2022/04/29 08:21:18;;;;;;;7.03;4.03;;;;;;;;;;6156655;28;20853;-71
2022/04/29 08:24:38;;;;;;;5.03;3.50;;;;;;;;;;6156746;28;20233;-69
2022/04/29 08:28:00;;;;;;;5.43;3.73;;;;;;;;;;6171329;28;20248;-68
2022/04/29 08:31:22;;;;;;;5.80;3.37;;;;;;;;;;6167615;28;20513;-70
2022/04/29 08:34:51;;;;;;;5.00;3.37;;;;;;;;;;6155071;28;21232;-68
2022/04/29 08:38:12;;;;;;;6.23;2.63;;;;;;;;;;6171074;28;20238;-70
2022/04/29 08:41:40;;;;;;;9.23;3.50;;;;;;;;;;6162751;28;20238;-69
2022/04/29 08:45:06;;;;;;;3.17;2.87;;;;;;;;;;6153742;28;20308;-69
2022/04/29 08:48:50;;;;;;;10.33;4.10;;;;;;;;;;6151683;28;21282;-70
2022/04/29 08:52:13;;;;;;;5.60;3.37;;;;;;;;;;6172433;28;20623;-70
2022/04/29 08:59:12;;;;;;;9.17;3.00;;;;;;;;;;6167379;28;20785;-69
2022/04/29 09:02:38;;;;;;;5.27;2.80;;;;;;;;;;6163002;28;20237;-70
2022/04/29 09:05:59;;;;;;;5.87;3.10;;;;;;;;;;6123282;28;20234;-70
2022/04/29 09:09:21;;;;;;;5.97;2.70;;;;;;;;;;6169415;28;20241;-70
2022/04/29 09:12:42;;;;;;;3.07;2.77;;;;;;;;;;6167530;28;20238;-69
2022/04/29 09:16:05;;;;;;;6.73;3.00;;;;;;;;;;6135974;28;20237;-68
2022/04/29 09:19:31;;;;;;;10.07;5.97;;;;;;;;;;6149631;28;20234;-69
2022/04/29 09:22:52;;;;;;;4.60;2.97;;;;;;;;;;6166535;28;20230;-69
2022/04/29 09:26:34;;;;;;;3.07;2.23;;;;;;;;;;6163768;28;20234;-69
2022/04/29 09:30:08;;;;;;;7.53;2.10;;;;;;;;;;6164273;28;20234;-68
2022/04/29 09:33:30;;;;;;;5.80;3.10;;;;;;;;;;6165031;28;20813;-69
2022/04/29 09:37:19;;;;;;;5.30;2.30;;;;;;;;;;6114704;28;1075697;-69
2022/04/29 09:40:39;;;;;;;5.37;2.93;;;;;;;;;;6165809;28;20682;-69
2022/04/29 09:44:00;;;;;;;3.80;2.13;;;;;;;;;;6175172;28;20238;-69
2022/04/29 09:47:22;;;;;;;2.43;2.17;;;;;;;;;;6176417;28;20233;-69
2022/04/29 09:50:47;;;;;;;5.73;2.70;;;;;;;;;;6171600;28;20242;-68
2022/04/29 09:54:08;;;;;;;6.77;3.43;;;;;;;;;;6173453;28;20213;-70
2022/04/29 09:57:29;;;;;;;3.80;2.27;;;;;;;;;;6181790;28;20229;-69
2022/04/29 10:00:51;;;;;;;3.70;2.20;;;;;;;;;;6171429;28;20254;-71
2022/04/29 10:04:12;;;;;;;2.23;2.10;;;;;;;;;;6167645;28;20317;-69
2022/04/29 10:07:34;;;;;;;2.47;2.27;;;;;;;;;;6172788;28;20328;-70
2022/04/29 10:10:57;;;;;;;4.00;2.90;;;;;;;;;;6125532;28;20241;-70
2022/04/29 10:14:18;;;;;;;2.53;2.03;;;;;;;;;;6165941;28;20238;-69
2022/04/29 10:21:39;;;;;;;5.50;3.63;;;;;;;;;;6148637;28;20233;-71
2022/04/29 10:25:00;;;;;;;7.70;2.70;;;;;;;;;;6165946;28;20230;-74
2022/04/29 10:28:22;;;;;;;6.87;4.27;;;;;;;;;;6168539;28;20316;-73
2022/04/29 10:31:43;;;;;;;7.03;6.33;;;;;;;;;;6167154;28;20237;-71
2022/04/29 10:35:25;;;;;;;4.30;2.40;;;;;;;;;;6161130;28;20242;-68
2022/04/29 10:38:47;;;;;;;4.53;2.53;;;;;;;;;;6160624;28;20686;-70
2022/04/29 10:42:08;;;;;;;3.50;2.13;;;;;;;;;;6159183;28;22491;-71
2022/04/29 10:45:29;;;;;;;7.00;6.30;;;;;;;;;;6161591;28;20642;-70
2022/04/29 10:48:52;;;;;;;4.87;2.63;;;;;;;;;;6161691;28;20254;-70
2022/04/29 10:52:33;;;;;;;3.17;2.10;;;;;;;;;;6162175;28;20811;-69
2022/04/29 10:56:17;;;;;;;3.60;2.60;;;;;;;;;;6148618;28;20225;-67
2022/04/29 10:59:54;;;;;;;6.07;2.70;;;;;;;;;;6172850;28;20233;-67
2022/04/29 11:03:34;;;;;;;2.95;2.33;;;;;;;;;;6151716;28;20245;-68
2022/04/29 11:06:54;;;;;;;3.38;1.90;;;;;;;;;;6169469;28;20249;-68
2022/04/29 11:10:18;;;;;;;3.40;2.00;;;;;;;;;;6165866;28;20249;-67
2022/04/29 11:13:47;;;;;;;3.72;1.92;;;;;;;;;;6160618;28;20230;-68
2022/04/29 11:17:37;;;;;;;3.42;2.28;;;;;;;;;;6161351;28;20628;-67
2022/04/29 11:20:59;;;;;;;9.48;2.92;;;;;;;;;;6164953;28;20242;-68
2022/04/29 11:28:01;;;;;;;5.10;2.35;;;;;;;;;;6179068;28;20229;-68
2022/04/29 11:31:41;;;;;;;3.92;2.10;;;;;;;;;;6158318;28;20797;-70
2022/04/29 11:35:04;;;;;;;3.17;2.50;;;;;;;;;;6160092;28;20225;-70
2022/04/29 11:38:26;;;;;;;4.18;2.05;;;;;;;;;;6173075;28;20702;-69
2022/04/29 11:41:54;;;;;;;8.20;2.63;;;;;;;;;;6171595;28;20233;-69
2022/04/29 11:45:15;;;;;;;3.90;2.45;;;;;;;;;;6170472;28;20328;-69
2022/04/29 11:48:53;;;;;;;3.33;3.03;;;;;;;;;;6171575;28;20238;-70
2022/04/29 11:52:17;;;;;;;4.35;2.10;;;;;;;;;;6170314;28;20253;-70
2022/04/29 11:55:38;;;;;;;1.95;1.75;;;;;;;;;;6164442;28;20328;-69
2022/04/29 11:58:58;;;;;;;2.10;1.85;;;;;;;;;;6167583;28;20234;-68
2022/04/29 12:02:21;;;;;;;3.42;2.67;;;;;;;;;;6165317;28;20338;-70
2022/04/29 12:05:43;;;;;;;3.00;1.77;;;;;;;;;;6166435;28;20234;-69
2022/04/29 12:09:08;;;;;;;3.55;2.17;;;;;;;;;;6162797;28;20234;-68
2022/04/29 12:12:30;;;;;;;4.18;2.58;;;;;;;;;;6163962;28;20230;-70
2022/04/29 12:15:52;;;;;;;2.92;2.17;;;;;;;;;;6166330;28;20530;-69
2022/04/29 12:19:18;;;;;;;3.35;2.35;;;;;;;;;;6161485;28;20233;-69
2022/04/29 12:22:39;;;;;;;3.15;2.42;;;;;;;;;;6163810;28;20237;-68
2022/04/29 12:26:01;;;;;;;4.55;2.28;;;;;;;;;;6144201;28;20261;-68
2022/04/29 12:29:29;;;;;;;3.22;2.08;;;;;;;;;;6172822;28;20763;-68
2022/04/29 12:36:31;;;;;;;3.78;3.00;;;;;;;;;;6176264;28;20233;-68
2022/04/29 12:39:51;;;;;;;2.55;2.35;;;;;;;;;;6172077;28;20576;-68
2022/04/29 12:43:13;;;;;;;3.53;2.63;;;;;;;;;;6168905;28;20595;-68
2022/04/29 12:46:33;;;;;;;4.80;3.22;;;;;;;;;;6177249;28;20230;-69
2022/04/29 12:49:55;;;;;;;4.22;3.30;;;;;;;;;;6171554;28;20356;-66
2022/04/29 12:53:17;;;;;;;2.35;2.20;;;;;;;;;;6172789;28;20261;-69
2022/04/29 12:56:38;;;;;;;3.78;2.72;;;;;;;;;;6171599;28;20230;-69
2022/04/29 13:00:00;;;;;;;4.07;2.80;;;;;;;;;;6173024;28;20971;-69
2022/04/29 13:03:22;;;;;;;2.95;2.65;;;;;;;;;;6155962;28;20229;-68
2022/04/29 13:06:48;;;;;;;3.42;2.95;;;;;;;;;;6158465;28;20256;-71
2022/04/29 13:10:10;;;;;;;4.70;3.05;;;;;;;;;;6166677;28;20226;-68
2022/04/29 13:13:32;;;;;;;4.00;3.35;;;;;;;;;;6171170;28;20230;-68
2022/04/29 13:16:53;;;;;;;4.07;3.67;;;;;;;;;;6168608;28;20229;-67
2022/04/29 13:20:13;;;;;;;5.03;2.90;;;;;;;;;;6175091;28;21124;-68
2022/04/29 13:23:35;;;;;;;5.13;2.58;;;;;;;;;;6164109;28;20233;-68
2022/04/29 13:27:03;;;;;;;3.60;3.10;;;;;;;;;;6159873;28;20226;-68
2022/04/29 13:30:23;;;;;;;4.15;2.67;;;;;;;;;;6174272;28;20234;-68
2022/04/29 13:33:44;;;;;;;8.60;7.50;;;;;;;;;;6165908;28;20237;-67
2022/04/29 13:37:05;;;;;;;5.22;4.13;;;;;;;;;;6169539;28;20229;-68
2022/04/29 13:40:25;;;;;;;6.80;3.70;;;;;;;;;;6172047;28;25580;-68
2022/04/29 13:43:48;;;;;;;10.27;9.30;;;;;;;;;;6165885;28;20234;-66
2022/04/29 13:47:08;;;;;;;6.00;4.47;;;;;;;;;;6170809;28;20667;-67
2022/04/29 13:50:29;;;;;;;4.93;4.43;;;;;;;;;;6167405;28;20234;-67
2022/04/29 13:53:50;;;;;;;7.75;6.93;;;;;;;;;;6160562;28;20238;-68
2022/04/29 13:57:10;;;;;;;13.32;11.93;;;;;;;;;;6162494;28;20265;-68
2022/04/29 14:00:32;;;;;;;11.77;10.32;;;;;;;;;;6166378;28;20234;-67
2022/04/29 14:03:53;;;;;;;6.05;5.55;;;;;;;;;;6172935;28;20234;-68
2022/04/29 14:07:14;;;;;;;6.95;5.53;;;;;;;;;;6170175;28;20870;-69
2022/04/29 14:10:35;;;;;;;8.63;7.63;;;;;;;;;;6169667;28;20234;-68
2022/04/29 14:13:55;;;;;;;10.25;9.30;;;;;;;;;;6173310;28;20258;-68
2022/04/29 14:17:17;;;;;;;9.88;8.90;;;;;;;;;;6170815;28;20587;-67
2022/04/29 14:20:38;;;;;;;9.75;7.47;;;;;;;;;;6139945;28;20253;-66
2022/04/29 14:23:58;;;;;;;9.70;3.92;;;;;;;;;;6167327;28;20238;-71
2022/04/29 14:27:20;;;;;;;6.93;5.75;;;;;;;;;;6176120;28;20258;-72
2022/04/29 14:30:41;;;;;;;3.72;3.15;;;;;;;;;;6165606;28;20249;-71
2022/04/29 14:34:03;;;;;;;4.63;2.92;;;;;;;;;;6166288;28;20687;-71
2022/04/29 14:37:26;;;;;;;3.22;2.97;;;;;;;;;;6163639;28;20238;-71
2022/04/29 14:40:46;;;;;;;5.00;3.03;;;;;;;;;;6156723;28;20230;-72
2022/04/29 14:44:07;;;;;;;3.97;3.05;;;;;;;;;;6163212;28;20241;-70
2022/04/29 14:47:28;;;;;;;8.70;6.25;;;;;;;;;;6165910;28;20242;-71
2022/04/29 14:50:51;;;;;;;3.50;2.75;;;;;;;;;;6173579;28;20302;-70
2022/04/29 14:54:12;;;;;;;9.38;8.50;;;;;;;;;;6174376;28;20263;-70
2022/04/29 14:57:34;;;;;;;8.90;6.30;;;;;;;;;;6176427;28;20234;-71
2022/04/29 15:00:54;;;;;;;7.35;5.82;;;;;;;;;;6146497;28;20678;-70
2022/04/29 15:04:16;;;;;;;7.28;4.55;;;;;;;;;;6174703;28;20316;-70
2022/04/29 15:07:38;;;;;;;4.25;3.13;;;;;;;;;;6175213;28;20233;-72
2022/04/29 15:18:19;;;;;;;7.43;3.58;;;;;;;;;;6174282;28;20233;-72
2022/04/29 15:21:40;;;;;;;9.50;7.60;;;;;;;;;;6181330;28;20230;-72
2022/04/29 15:25:02;;;;;;;5.60;4.10;;;;;;;;;;6173008;28;20233;-71
2022/04/29 15:28:25;;;;;;;6.97;4.53;;;;;;;;;;6174807;28;20237;-69
2022/04/29 15:31:46;;;;;;;10.30;4.78;;;;;;;;;;6170574;28;20233;-70
2022/04/29 15:35:07;;;;;;;5.95;5.45;;;;;;;;;;6171958;28;20229;-71
2022/04/29 15:38:28;;;;;;;7.10;4.60;;;;;;;;;;6177791;28;20246;-71
2022/04/29 15:41:50;;;;;;;10.53;5.10;;;;;;;;;;6170781;28;20245;-71
2022/04/29 15:45:14;;;;;;;7.67;5.53;;;;;;;;;;6170665;28;20242;-70
2022/04/29 15:48:35;;;;;;;7.37;4.23;;;;;;;;;;6161997;28;20242;-72
2022/04/29 15:51:56;;;;;;;6.97;4.43;;;;;;;;;;6158510;28;20226;-71
2022/04/29 15:55:18;;;;;;;5.40;3.73;;;;;;;;;;6171147;28;20257;-74
2022/04/29 15:58:40;;;;;;;3.73;3.43;;;;;;;;;;6148129;28;20237;-72
2022/04/29 16:02:01;;;;;;;4.33;3.63;;;;;;;;;;6167452;28;20281;-71
2022/04/29 16:05:21;;;;;;;3.30;3.00;;;;;;;;;;6174731;28;20230;-71
2022/04/29 16:21:49;;;;;;;3.83;3.53;;;;;;;;;;6168010;28;21112;-71
2022/04/29 16:28:43;;;;;;;4.10;3.80;;;;;;;;;;6165059;28;20226;-71
2022/04/29 16:32:07;;;;;;;4.53;4.17;;;;;;;;;;6168602;28;20330;-73
2022/04/29 16:35:27;;;;;;;5.00;4.00;;;;;;;;;;6145641;28;20858;-73
2022/04/29 16:38:49;;;;;;;4.10;3.70;;;;;;;;;;6169050;28;20230;-72
2022/04/29 16:42:10;;;;;;;5.33;3.43;;;;;;;;;;6165726;28;20230;-72
2022/04/29 16:45:31;;;;;;;6.03;3.73;;;;;;;;;;6167468;28;20726;-72
2022/04/29 16:48:51;;;;;;;4.50;4.10;;;;;;;;;;6174899;28;20237;-72
2022/04/29 16:52:12;;;;;;;9.57;7.67;;;;;;;;;;6170795;28;20242;-72
2022/04/29 16:55:35;;;;;;;6.73;5.07;;;;;;;;;;6172951;28;20651;-72
2022/04/29 16:58:58;;;;;;;6.17;5.30;;;;;;;;;;6172637;28;20253;-71
2022/04/29 17:02:18;;;;;;;6.67;4.33;;;;;;;;;;6167402;28;20266;-72
2022/04/29 17:05:39;;;;;;;4.73;4.33;;;;;;;;;;6176338;28;20222;-71
2022/04/29 17:08:59;;;;;;;13.47;8.17;;;;;;;;;;6174761;28;21137;-72
2022/04/29 17:12:21;;;;;;;6.50;5.73;;;;;;;;;;6171746;28;20229;-72
2022/04/29 17:15:42;;;;;;;7.33;5.60;;;;;;;;;;6172593;28;20226;-73
2022/04/29 17:19:03;;;;;;;6.23;4.97;;;;;;;;;;6179172;28;20328;-71
2022/04/29 17:22:24;;;;;;;6.53;4.83;;;;;;;;;;6172070;28;20538;-72
2022/04/29 17:25:45;;;;;;;6.43;4.40;;;;;;;;;;6171947;28;20249;-73
2022/04/29 17:29:07;;;;;;;5.57;4.87;;;;;;;;;;6171485;28;20238;-72
2022/04/29 17:32:27;;;;;;;6.60;4.70;;;;;;;;;;6167421;28;20226;-73
2022/04/29 17:35:48;;;;;;;6.13;4.80;;;;;;;;;;6169018;28;20322;-73
2022/04/29 17:42:21;;;;;;;7.53;4.50;;;;;;;;;;6164697;28;20245;-71
2022/04/29 17:42:49;;;;;;;8.17;5.60;;;;;;;;;;6173500;28;20233;-73
2022/04/29 17:46:11;;;;;;;8.53;5.30;;;;;;;;;;6161457;28;20793;-72
2022/04/29 17:49:32;;;;;;;15.07;8.73;;;;;;;;;;6166807;28;20226;-72
2022/04/29 17:52:53;;;;;;;13.27;11.40;;;;;;;;;;6167995;28;20234;-72
2022/04/29 17:56:14;;;;;;;9.60;7.17;;;;;;;;;;6171240;28;20241;-74
2022/04/29 17:59:35;;;;;;;7.97;5.73;;;;;;;;;;6161613;28;20238;-72
2022/04/29 18:02:58;;;;;;;4.87;3.60;;;;;;;;;;6162907;28;20230;-72
2022/04/29 18:06:19;;;;;;;6.27;5.27;;;;;;;;;;6166275;28;20321;-71
2022/04/29 18:09:39;;;;;;;6.27;4.07;;;;;;;;;;6151983;28;20619;-72
2022/04/29 18:13:00;;;;;;;5.30;3.60;;;;;;;;;;6174763;28;20230;-73
2022/04/29 18:16:20;;;;;;;5.70;3.70;;;;;;;;;;6167748;28;20458;-73
2022/04/29 18:19:42;;;;;;;5.10;3.87;;;;;;;;;;6165623;28;20237;-72
2022/04/29 18:23:03;;;;;;;8.57;7.70;;;;;;;;;;6167049;28;20237;-72
2022/04/29 18:26:24;;;;;;;11.53;9.07;;;;;;;;;;6166500;28;20679;-72
2022/04/29 18:29:45;;;;;;;5.30;4.80;;;;;;;;;;6166602;28;20266;-71
2022/04/29 18:33:06;;;;;;;5.17;3.47;;;;;;;;;;6171222;28;21220;-73
2022/04/29 18:36:28;;;;;;;7.30;4.77;;;;;;;;;;6169032;28;20601;-73
2022/04/29 18:39:48;;;;;;;20.07;18.23;;;;;;;;;;6171941;28;20238;-72
2022/04/29 18:43:09;;;;;;;8.70;7.97;;;;;;;;;;6170976;28;20233;-72
2022/04/29 18:46:30;;;;;;;4.07;3.63;;;;;;;;;;6170294;28;20264;-72
2022/04/29 18:49:51;;;;;;;7.07;3.47;;;;;;;;;;6166490;28;20713;-72
2022/04/29 18:53:13;;;;;;;7.27;6.60;;;;;;;;;;6153997;28;20234;-73
2022/04/29 18:56:34;;;;;;;7.83;7.03;;;;;;;;;;6169488;28;20229;-72
2022/04/29 18:59:55;;;;;;;6.17;3.43;;;;;;;;;;6163042;28;20234;-71
2022/04/29 19:03:17;;;;;;;4.67;3.70;;;;;;;;;;6161899;28;20558;-73
2022/04/29 19:06:37;;;;;;;5.47;3.87;;;;;;;;;;6169220;28;20697;-72
2022/04/29 19:10:00;;;;;;;5.50;3.30;;;;;;;;;;6152484;28;20494;-73
2022/04/29 19:13:21;;;;;;;3.60;3.30;;;;;;;;;;6175019;28;20816;-72
2022/04/29 19:16:42;;;;;;;6.07;5.30;;;;;;;;;;6170767;28;20245;-72
2022/04/29 19:20:03;;;;;;;6.03;5.03;;;;;;;;;;6166027;28;20599;-73
2022/04/29 19:23:24;;;;;;;6.37;5.33;;;;;;;;;;6170273;28;20616;-72
2022/04/29 19:26:46;;;;;;;17.00;13.00;;;;;;;;;;6173758;28;20241;-72
2022/04/29 19:30:08;;;;;;;8.90;6.50;;;;;;;;;;6171221;28;20234;-72
2022/04/29 19:33:30;;;;;;;16.77;11.37;;;;;;;;;;6166944;28;20590;-73
2022/04/29 19:36:51;;;;;;;12.00;5.67;;;;;;;;;;6168832;28;20226;-72
2022/04/29 19:40:12;;;;;;;7.20;4.87;;;;;;;;;;6169993;28;20265;-72
2022/04/29 19:43:34;;;;;;;6.53;5.07;;;;;;;;;;6172917;28;20241;-72
2022/04/29 19:46:55;;;;;;;7.77;5.80;;;;;;;;;;6167877;28;20225;-73
2022/04/29 19:50:15;;;;;;;9.57;6.57;;;;;;;;;;6167368;28;20230;-72
2022/04/29 19:53:36;;;;;;;6.13;5.13;;;;;;;;;;6172897;28;20242;-72
2022/04/29 20:00:36;;;;;;;7.07;4.77;;;;;;;;;;6166232;28;20237;-73
2022/04/29 20:03:56;;;;;;;6.00;4.60;;;;;;;;;;6171647;28;20572;-72
2022/04/29 20:07:16;;;;;;;4.53;3.63;;;;;;;;;;6170968;28;20684;-72
2022/04/29 20:10:37;;;;;;;5.63;3.80;;;;;;;;;;6174821;28;21163;-72
2022/04/29 20:13:57;;;;;;;6.27;4.27;;;;;;;;;;6172037;28;20229;-72
2022/04/29 20:17:19;;;;;;;7.63;4.20;;;;;;;;;;6169118;28;22200;-73
2022/04/29 20:20:39;;;;;;;7.27;4.03;;;;;;;;;;6172081;28;20290;-72
2022/04/29 20:24:00;;;;;;;8.13;5.90;;;;;;;;;;6170201;28;20248;-73
2022/04/29 20:27:20;;;;;;;10.20;7.60;;;;;;;;;;6168031;28;20230;-73
2022/04/29 20:30:43;;;;;;;7.00;4.97;;;;;;;;;;6168798;28;20237;-72
2022/04/29 20:34:06;;;;;;;5.93;3.80;;;;;;;;;;6167794;28;20280;-72
2022/04/29 20:37:26;;;;;;;15.00;10.97;;;;;;;;;;6168298;28;20225;-72
2022/04/29 20:44:37;;;;;;;7.87;4.90;;;;;;;;;;6079700;28;20229;-72
2022/04/29 20:47:57;;;;;;;17.63;14.40;;;;;;;;;;6174076;28;20230;-71
2022/04/29 20:51:21;;;;;;;20.70;16.73;;;;;;;;;;6145304;28;20292;-72
2022/04/29 20:54:43;;;;;;;13.67;10.97;;;;;;;;;;6174214;28;20238;-72
2022/04/29 20:58:04;;;;;;;12.70;10.33;;;;;;;;;;6171407;28;20241;-74
2022/04/29 21:01:26;;;;;;;20.93;15.77;;;;;;;;;;6166058;28;20237;-74
2022/04/29 21:04:46;;;;;;;25.50;19.10;;;;;;;;;;6174442;28;20227;-73
2022/04/29 21:08:08;;;;;;;16.37;14.40;;;;;;;;;;6162703;28;20632;-73
2022/04/29 21:11:29;;;;;;;14.93;12.57;;;;;;;;;;6178761;28;20225;-72
2022/04/29 21:14:50;;;;;;;16.80;15.07;;;;;;;;;;6178318;28;20738;-72
2022/04/29 21:18:11;;;;;;;20.90;17.80;;;;;;;;;;6174166;28;20616;-72